sensor_id;sensor_type;location;lat;lon;timestamp;P1;durP1;ratioP1;P2;durP2;ratioP2
50086;SDS011;35967;50.718;7.050;2022-09-30T00:07:57;3.73;;;1.47;;
50086;SDS011;35967;50.718;7.050;2022-09-30T00:17:59;4.17;;;1.47;;
50086;SDS011;35967;50.718;7.050;2022-09-30T00:28:01;6.07;;;1.90;;
50086;SDS011;35967;50.718;7.050;2022-09-30T00:38:03;7.40;;;1.93;;
50086;SDS011;35967;50.718;7.050;2022-09-30T00:58:10;4.70;;;1.70;;
50086;SDS011;35967;50.718;7.050;2022-09-30T01:08:16;6.70;;;1.67;;
50086;SDS011;35967;50.718;7.050;2022-09-30T01:18:29;5.90;;;1.70;;
50086;SDS011;35967;50.718;7.050;2022-09-30T01:59:44;6.57;;;1.30;;
50086;SDS011;35967;50.718;7.050;2022-09-30T02:09:54;2.60;;;0.93;;
50086;SDS011;35967;50.718;7.050;2022-09-30T02:20:05;3.55;;;1.25;;
50086;SDS011;35967;50.718;7.050;2022-09-30T02:30:11;3.93;;;1.10;;
50086;SDS011;35967;50.718;7.050;2022-09-30T02:40:15;3.87;;;1.10;;
50086;SDS011;35967;50.718;7.050;2022-09-30T03:00:40;3.77;;;1.60;;
50086;SDS011;35967;50.718;7.050;2022-09-30T03:10:42;2.93;;;1.20;;
50086;SDS011;35967;50.718;7.050;2022-09-30T03:31:04;3.97;;;1.57;;
50086;SDS011;35967;50.718;7.050;2022-09-30T03:51:39;5.60;;;1.50;;
50086;SDS011;35967;50.718;7.050;2022-09-30T04:01:42;4.43;;;1.50;;
50086;SDS011;35967;50.718;7.050;2022-09-30T04:11:43;6.40;;;1.90;;
50086;SDS011;35967;50.718;7.050;2022-09-30T04:21:45;4.43;;;1.50;;
50086;SDS011;35967;50.718;7.050;2022-09-30T04:31:47;3.23;;;1.50;;
50086;SDS011;35967;50.718;7.050;2022-09-30T04:41:49;4.90;;;1.80;;
50086;SDS011;35967;50.718;7.050;2022-09-30T04:51:54;4.93;;;1.40;;
50086;SDS011;35967;50.718;7.050;2022-09-30T05:01:56;3.03;;;1.10;;
50086;SDS011;35967;50.718;7.050;2022-09-30T05:11:58;3.77;;;1.40;;
50086;SDS011;35967;50.718;7.050;2022-09-30T05:21:59;5.90;;;1.80;;
50086;SDS011;35967;50.718;7.050;2022-09-30T05:32:01;5.87;;;1.70;;
50086;SDS011;35967;50.718;7.050;2022-09-30T05:42:03;4.30;;;1.80;;
50086;SDS011;35967;50.718;7.050;2022-09-30T05:52:05;4.23;;;1.50;;
50086;SDS011;35967;50.718;7.050;2022-09-30T06:02:27;3.47;;;1.20;;
50086;SDS011;35967;50.718;7.050;2022-09-30T06:12:28;3.97;;;1.40;;
50086;SDS011;35967;50.718;7.050;2022-09-30T06:22:31;4.03;;;1.47;;
50086;SDS011;35967;50.718;7.050;2022-09-30T06:32:36;5.60;;;1.70;;
50086;SDS011;35967;50.718;7.050;2022-09-30T06:42:38;5.13;;;2.10;;
50086;SDS011;35967;50.718;7.050;2022-09-30T06:52:39;2.43;;;1.30;;
50086;SDS011;35967;50.718;7.050;2022-09-30T07:02:41;2.47;;;1.10;;
50086;SDS011;35967;50.718;7.050;2022-09-30T07:12:43;4.60;;;1.37;;
50086;SDS011;35967;50.718;7.050;2022-09-30T07:22:45;4.73;;;1.10;;
50086;SDS011;35967;50.718;7.050;2022-09-30T07:32:47;1.50;;;0.80;;
50086;SDS011;35967;50.718;7.050;2022-09-30T07:42:49;4.43;;;1.03;;
50086;SDS011;35967;50.718;7.050;2022-09-30T07:52:51;2.53;;;1.00;;
50086;SDS011;35967;50.718;7.050;2022-09-30T08:02:53;2.63;;;0.80;;
50086;SDS011;35967;50.718;7.050;2022-09-30T08:12:55;4.57;;;0.80;;
50086;SDS011;35967;50.718;7.050;2022-09-30T08:23:01;1.77;;;0.80;;
50086;SDS011;35967;50.718;7.050;2022-09-30T08:33:03;4.03;;;0.70;;
50086;SDS011;35967;50.718;7.050;2022-09-30T08:43:08;3.40;;;0.57;;
50086;SDS011;35967;50.718;7.050;2022-09-30T08:53:21;2.40;;;0.60;;
50086;SDS011;35967;50.718;7.050;2022-09-30T09:03:27;6.30;;;0.80;;
50086;SDS011;35967;50.718;7.050;2022-09-30T09:13:38;5.10;;;1.80;;
50086;SDS011;35967;50.718;7.050;2022-09-30T09:23:54;6.47;;;3.07;;
50086;SDS011;35967;50.718;7.050;2022-09-30T09:34:07;6.27;;;2.13;;
50086;SDS011;35967;50.718;7.050;2022-09-30T09:44:16;4.93;;;2.40;;
50086;SDS011;35967;50.718;7.050;2022-09-30T09:54:27;5.60;;;2.70;;
50086;SDS011;35967;50.718;7.050;2022-09-30T10:04:31;6.20;;;2.50;;
50086;SDS011;35967;50.718;7.050;2022-09-30T10:14:55;4.93;;;2.17;;
50086;SDS011;35967;50.718;7.050;2022-09-30T10:25:16;4.90;;;2.23;;
50086;SDS011;35967;50.718;7.050;2022-09-30T10:35:21;3.90;;;1.30;;
50086;SDS011;35967;50.718;7.050;2022-09-30T10:45:28;3.90;;;1.30;;
50086;SDS011;35967;50.718;7.050;2022-09-30T10:55:42;3.20;;;1.20;;
50086;SDS011;35967;50.718;7.050;2022-09-30T11:05:47;4.83;;;1.23;;
50086;SDS011;35967;50.718;7.050;2022-09-30T11:16:10;4.67;;;1.37;;
50086;SDS011;35967;50.718;7.050;2022-09-30T11:36:47;4.77;;;0.70;;
50086;SDS011;35967;50.718;7.050;2022-09-30T11:57:14;1.97;;;0.40;;
50086;SDS011;35967;50.718;7.050;2022-09-30T12:07:34;3.23;;;0.40;;
50086;SDS011;35967;50.718;7.050;2022-09-30T12:49:28;2.13;;;0.33;;
50086;SDS011;35967;50.718;7.050;2022-09-30T12:59:33;3.67;;;0.40;;
50086;SDS011;35967;50.718;7.050;2022-09-30T13:09:58;2.47;;;0.40;;
50086;SDS011;35967;50.718;7.050;2022-09-30T13:20:47;1.20;;;0.30;;
50086;SDS011;35967;50.718;7.050;2022-09-30T13:30:43;1.77;;;0.20;;
50086;SDS011;35967;50.718;7.050;2022-09-30T13:40:53;0.40;;;0.20;;
50086;SDS011;35967;50.718;7.050;2022-09-30T14:11:46;0.70;;;0.30;;
50086;SDS011;35967;50.718;7.050;2022-09-30T14:22:03;3.57;;;0.30;;
50086;SDS011;35967;50.718;7.050;2022-09-30T14:32:51;3.87;;;0.37;;
50086;SDS011;35967;50.718;7.050;2022-09-30T14:42:45;1.70;;;0.40;;
50086;SDS011;35967;50.718;7.050;2022-09-30T14:52:48;2.37;;;0.60;;
50086;SDS011;35967;50.718;7.050;2022-09-30T15:02:54;1.30;;;0.40;;
50086;SDS011;35967;50.718;7.050;2022-09-30T15:12:56;5.40;;;1.77;;
50086;SDS011;35967;50.718;7.050;2022-09-30T15:22:59;3.97;;;0.80;;
50086;SDS011;35967;50.718;7.050;2022-09-30T15:33:03;1.17;;;0.40;;
50086;SDS011;35967;50.718;7.050;2022-09-30T15:43:07;1.50;;;0.20;;
50086;SDS011;35967;50.718;7.050;2022-09-30T15:53:15;2.13;;;0.20;;
50086;SDS011;35967;50.718;7.050;2022-09-30T16:03:27;0.50;;;0.30;;
50086;SDS011;35967;50.718;7.050;2022-09-30T16:13:31;1.93;;;0.30;;
50086;SDS011;35967;50.718;7.050;2022-09-30T16:23:35;1.57;;;0.30;;
50086;SDS011;35967;50.718;7.050;2022-09-30T16:33:43;5.47;;;1.90;;
50086;SDS011;35967;50.718;7.050;2022-09-30T16:43:45;1.50;;;0.40;;
50086;SDS011;35967;50.718;7.050;2022-09-30T16:53:47;3.50;;;0.63;;
50086;SDS011;35967;50.718;7.050;2022-09-30T17:03:49;3.47;;;1.00;;
50086;SDS011;35967;50.718;7.050;2022-09-30T17:13:52;2.23;;;0.60;;
50086;SDS011;35967;50.718;7.050;2022-09-30T17:23:54;2.27;;;0.80;;
50086;SDS011;35967;50.718;7.050;2022-09-30T17:33:56;3.33;;;0.80;;
50086;SDS011;35967;50.718;7.050;2022-09-30T17:43:58;2.40;;;0.63;;
50086;SDS011;35967;50.718;7.050;2022-09-30T17:54:03;2.93;;;0.70;;
50086;SDS011;35967;50.718;7.050;2022-09-30T18:04:08;2.23;;;0.60;;
50086;SDS011;35967;50.718;7.050;2022-09-30T18:14:10;2.47;;;0.90;;
50086;SDS011;35967;50.718;7.050;2022-09-30T18:24:12;2.53;;;0.60;;
50086;SDS011;35967;50.718;7.050;2022-09-30T18:34:14;2.30;;;0.70;;
50086;SDS011;35967;50.718;7.050;2022-09-30T18:44:16;3.37;;;0.70;;
50086;SDS011;35967;50.718;7.050;2022-09-30T18:54:18;2.60;;;0.80;;
50086;SDS011;35967;50.718;7.050;2022-09-30T19:04:20;1.83;;;0.60;;
50086;SDS011;35967;50.718;7.050;2022-09-30T19:14:23;3.40;;;0.60;;
50086;SDS011;35967;50.718;7.050;2022-09-30T19:24:25;2.33;;;0.70;;
50086;SDS011;35967;50.718;7.050;2022-09-30T19:34:28;5.63;;;2.00;;
50086;SDS011;35967;50.718;7.050;2022-09-30T19:44:33;6.37;;;1.57;;
50086;SDS011;35967;50.718;7.050;2022-09-30T19:54:36;3.57;;;1.10;;
50086;SDS011;35967;50.718;7.050;2022-09-30T20:04:42;5.47;;;1.10;;
50086;SDS011;35967;50.718;7.050;2022-09-30T20:14:45;3.67;;;1.30;;
50086;SDS011;35967;50.718;7.050;2022-09-30T20:25:05;4.30;;;1.00;;
50086;SDS011;35967;50.718;7.050;2022-09-30T20:35:08;2.97;;;1.00;;
50086;SDS011;35967;50.718;7.050;2022-09-30T20:45:11;3.93;;;1.20;;
50086;SDS011;35967;50.718;7.050;2022-09-30T20:55:14;4.03;;;1.20;;
50086;SDS011;35967;50.718;7.050;2022-09-30T21:09:02;3.50;;;1.10;;
50086;SDS011;35967;50.718;7.050;2022-09-30T21:19:06;4.47;;;0.90;;
50086;SDS011;35967;50.718;7.050;2022-09-30T21:29:12;4.77;;;1.00;;
50086;SDS011;35967;50.718;7.050;2022-09-30T21:39:15;4.10;;;1.53;;
50086;SDS011;35967;50.718;7.050;2022-09-30T21:49:19;4.43;;;1.40;;
50086;SDS011;35967;50.718;7.050;2022-09-30T21:59:24;6.07;;;1.40;;
50086;SDS011;35967;50.718;7.050;2022-09-30T22:09:28;4.63;;;1.30;;
50086;SDS011;35967;50.718;7.050;2022-09-30T22:19:38;4.50;;;1.37;;
50086;SDS011;35967;50.718;7.050;2022-09-30T22:29:43;8.27;;;1.40;;
50086;SDS011;35967;50.718;7.050;2022-09-30T22:39:46;3.03;;;1.33;;
50086;SDS011;35967;50.718;7.050;2022-09-30T22:49:50;4.37;;;1.47;;
50086;SDS011;35967;50.718;7.050;2022-09-30T22:59:54;3.30;;;1.40;;
50086;SDS011;35967;50.718;7.050;2022-09-30T23:10:01;6.97;;;1.87;;
50086;SDS011;35967;50.718;7.050;2022-09-30T23:20:05;3.83;;;1.30;;
50086;SDS011;35967;50.718;7.050;2022-09-30T23:30:10;3.37;;;1.43;;
50086;SDS011;35967;50.718;7.050;2022-09-30T23:40:13;3.23;;;1.63;;
50086;SDS011;35967;50.718;7.050;2022-09-30T23:50:18;3.73;;;1.30;;
